sensor_id;sensor_type;location;lat;lon;timestamp;P1;durP1;ratioP1;P2;durP2;ratioP2
727;SDS011;347;48.780;9.158;2022-08-19T00:01:52;22.10;;;20.53;;
727;SDS011;347;48.780;9.158;2022-08-19T00:04:21;20.37;;;18.97;;
727;SDS011;347;48.780;9.158;2022-08-19T00:06:49;23.30;;;21.60;;
727;SDS011;347;48.780;9.158;2022-08-19T00:09:16;19.83;;;18.63;;
727;SDS011;347;48.780;9.158;2022-08-19T00:11:44;22.53;;;20.77;;
727;SDS011;347;48.780;9.158;2022-08-19T00:14:11;23.07;;;21.20;;
727;SDS011;347;48.780;9.158;2022-08-19T00:16:40;20.63;;;19.20;;
727;SDS011;347;48.780;9.158;2022-08-19T00:19:08;20.00;;;18.60;;
727;SDS011;347;48.780;9.158;2022-08-19T00:21:34;22.13;;;20.43;;
727;SDS011;347;48.780;9.158;2022-08-19T00:24:04;21.93;;;20.40;;
727;SDS011;347;48.780;9.158;2022-08-19T00:26:31;21.80;;;19.90;;
727;SDS011;347;48.780;9.158;2022-08-19T00:28:56;22.93;;;21.30;;
727;SDS011;347;48.780;9.158;2022-08-19T00:31:22;20.20;;;18.80;;
727;SDS011;347;48.780;9.158;2022-08-19T00:33:47;23.47;;;21.53;;
727;SDS011;347;48.780;9.158;2022-08-19T00:36:15;21.77;;;20.20;;
727;SDS011;347;48.780;9.158;2022-08-19T00:38:41;23.60;;;21.80;;
727;SDS011;347;48.780;9.158;2022-08-19T00:41:08;23.37;;;21.53;;
727;SDS011;347;48.780;9.158;2022-08-19T00:43:42;22.03;;;20.43;;
727;SDS011;347;48.780;9.158;2022-08-19T00:46:08;21.17;;;19.60;;
727;SDS011;347;48.780;9.158;2022-08-19T00:48:33;22.13;;;20.60;;
727;SDS011;347;48.780;9.158;2022-08-19T00:51:00;21.63;;;20.00;;
727;SDS011;347;48.780;9.158;2022-08-19T00:53:27;22.83;;;20.57;;
727;SDS011;347;48.780;9.158;2022-08-19T00:55:55;22.00;;;20.10;;
727;SDS011;347;48.780;9.158;2022-08-19T00:58:24;22.23;;;20.57;;
727;SDS011;347;48.780;9.158;2022-08-19T01:00:53;20.80;;;19.40;;
727;SDS011;347;48.780;9.158;2022-08-19T01:03:20;22.57;;;20.87;;
727;SDS011;347;48.780;9.158;2022-08-19T01:05:47;21.77;;;20.23;;
727;SDS011;347;48.780;9.158;2022-08-19T01:08:14;22.53;;;20.73;;
727;SDS011;347;48.780;9.158;2022-08-19T01:10:43;21.07;;;19.60;;
727;SDS011;347;48.780;9.158;2022-08-19T01:13:16;22.47;;;20.77;;
727;SDS011;347;48.780;9.158;2022-08-19T01:15:46;22.87;;;21.07;;
727;SDS011;347;48.780;9.158;2022-08-19T01:18:16;21.43;;;20.03;;
727;SDS011;347;48.780;9.158;2022-08-19T01:20:44;22.77;;;21.07;;
727;SDS011;347;48.780;9.158;2022-08-19T01:23:10;21.93;;;20.33;;
727;SDS011;347;48.780;9.158;2022-08-19T01:25:41;22.57;;;20.87;;
727;SDS011;347;48.780;9.158;2022-08-19T01:28:08;21.60;;;20.13;;
727;SDS011;347;48.780;9.158;2022-08-19T01:30:41;23.83;;;22.10;;
727;SDS011;347;48.780;9.158;2022-08-19T01:33:08;23.30;;;21.70;;
727;SDS011;347;48.780;9.158;2022-08-19T01:35:34;21.17;;;19.77;;
727;SDS011;347;48.780;9.158;2022-08-19T01:38:02;23.00;;;21.40;;
727;SDS011;347;48.780;9.158;2022-08-19T01:40:36;22.67;;;21.07;;
727;SDS011;347;48.780;9.158;2022-08-19T01:43:05;23.20;;;21.50;;
727;SDS011;347;48.780;9.158;2022-08-19T01:45:32;22.27;;;20.67;;
727;SDS011;347;48.780;9.158;2022-08-19T01:47:59;22.10;;;20.37;;
727;SDS011;347;48.780;9.158;2022-08-19T01:50:25;22.73;;;21.20;;
727;SDS011;347;48.780;9.158;2022-08-19T01:52:52;23.17;;;21.47;;
727;SDS011;347;48.780;9.158;2022-08-19T01:55:18;22.47;;;20.93;;
727;SDS011;347;48.780;9.158;2022-08-19T01:57:49;22.33;;;20.90;;
727;SDS011;347;48.780;9.158;2022-08-19T02:00:22;22.60;;;21.10;;
727;SDS011;347;48.780;9.158;2022-08-19T02:02:50;24.40;;;22.63;;
727;SDS011;347;48.780;9.158;2022-08-19T02:05:16;23.63;;;22.03;;
727;SDS011;347;48.780;9.158;2022-08-19T02:07:43;23.80;;;22.00;;
727;SDS011;347;48.780;9.158;2022-08-19T02:10:11;24.27;;;21.97;;
727;SDS011;347;48.780;9.158;2022-08-19T02:12:39;24.53;;;22.43;;
727;SDS011;347;48.780;9.158;2022-08-19T02:15:05;24.13;;;22.50;;
727;SDS011;347;48.780;9.158;2022-08-19T02:17:32;25.80;;;23.90;;
727;SDS011;347;48.780;9.158;2022-08-19T02:19:58;23.00;;;21.40;;
727;SDS011;347;48.780;9.158;2022-08-19T02:22:23;24.07;;;22.30;;
727;SDS011;347;48.780;9.158;2022-08-19T02:24:50;24.70;;;22.83;;
727;SDS011;347;48.780;9.158;2022-08-19T02:27:20;24.53;;;22.67;;
727;SDS011;347;48.780;9.158;2022-08-19T02:29:47;24.80;;;23.13;;
727;SDS011;347;48.780;9.158;2022-08-19T02:32:14;27.00;;;24.90;;
727;SDS011;347;48.780;9.158;2022-08-19T02:34:39;25.00;;;22.77;;
727;SDS011;347;48.780;9.158;2022-08-19T02:37:05;24.13;;;22.30;;
727;SDS011;347;48.780;9.158;2022-08-19T02:39:51;25.27;;;23.47;;
727;SDS011;347;48.780;9.158;2022-08-19T02:42:17;26.30;;;24.20;;
727;SDS011;347;48.780;9.158;2022-08-19T02:44:42;25.47;;;23.43;;
727;SDS011;347;48.780;9.158;2022-08-19T02:47:09;25.70;;;23.60;;
727;SDS011;347;48.780;9.158;2022-08-19T02:49:35;25.47;;;23.47;;
727;SDS011;347;48.780;9.158;2022-08-19T02:52:00;26.07;;;24.07;;
727;SDS011;347;48.780;9.158;2022-08-19T02:54:26;26.43;;;24.43;;
727;SDS011;347;48.780;9.158;2022-08-19T02:56:52;26.77;;;24.57;;
727;SDS011;347;48.780;9.158;2022-08-19T02:59:18;26.87;;;24.70;;
727;SDS011;347;48.780;9.158;2022-08-19T03:01:44;25.70;;;23.80;;
727;SDS011;347;48.780;9.158;2022-08-19T03:04:12;25.20;;;23.20;;
727;SDS011;347;48.780;9.158;2022-08-19T03:06:40;26.03;;;23.70;;
727;SDS011;347;48.780;9.158;2022-08-19T03:09:08;26.80;;;24.70;;
727;SDS011;347;48.780;9.158;2022-08-19T03:11:34;29.57;;;26.80;;
727;SDS011;347;48.780;9.158;2022-08-19T03:14:00;28.00;;;25.77;;
727;SDS011;347;48.780;9.158;2022-08-19T03:16:27;27.70;;;25.40;;
727;SDS011;347;48.780;9.158;2022-08-19T03:18:55;26.17;;;24.17;;
727;SDS011;347;48.780;9.158;2022-08-19T03:21:24;27.80;;;25.60;;
727;SDS011;347;48.780;9.158;2022-08-19T03:23:55;27.00;;;24.83;;
727;SDS011;347;48.780;9.158;2022-08-19T03:26:23;27.40;;;25.30;;
727;SDS011;347;48.780;9.158;2022-08-19T03:28:48;27.40;;;25.17;;
727;SDS011;347;48.780;9.158;2022-08-19T03:31:15;26.43;;;24.40;;
727;SDS011;347;48.780;9.158;2022-08-19T03:33:44;27.83;;;25.67;;
727;SDS011;347;48.780;9.158;2022-08-19T03:36:15;28.77;;;26.60;;
727;SDS011;347;48.780;9.158;2022-08-19T03:38:44;27.57;;;25.27;;
727;SDS011;347;48.780;9.158;2022-08-19T03:41:13;28.23;;;26.03;;
727;SDS011;347;48.780;9.158;2022-08-19T03:43:40;28.77;;;26.53;;
727;SDS011;347;48.780;9.158;2022-08-19T03:46:08;29.90;;;27.30;;
727;SDS011;347;48.780;9.158;2022-08-19T03:48:36;26.77;;;24.90;;
727;SDS011;347;48.780;9.158;2022-08-19T03:51:03;28.40;;;26.27;;
727;SDS011;347;48.780;9.158;2022-08-19T03:53:29;29.63;;;27.00;;
727;SDS011;347;48.780;9.158;2022-08-19T03:55:56;30.27;;;27.67;;
727;SDS011;347;48.780;9.158;2022-08-19T03:58:24;30.33;;;27.80;;
727;SDS011;347;48.780;9.158;2022-08-19T04:00:50;27.40;;;25.40;;
727;SDS011;347;48.780;9.158;2022-08-19T04:03:16;29.23;;;27.03;;
727;SDS011;347;48.780;9.158;2022-08-19T04:05:43;30.50;;;28.07;;
727;SDS011;347;48.780;9.158;2022-08-19T04:08:09;29.27;;;26.97;;
727;SDS011;347;48.780;9.158;2022-08-19T04:10:36;30.23;;;27.33;;
727;SDS011;347;48.780;9.158;2022-08-19T04:13:03;29.67;;;27.30;;
727;SDS011;347;48.780;9.158;2022-08-19T04:15:30;29.10;;;26.67;;
727;SDS011;347;48.780;9.158;2022-08-19T04:18:00;29.87;;;27.50;;
727;SDS011;347;48.780;9.158;2022-08-19T04:20:26;30.60;;;27.97;;
727;SDS011;347;48.780;9.158;2022-08-19T04:22:51;29.60;;;27.20;;
727;SDS011;347;48.780;9.158;2022-08-19T04:25:17;29.97;;;27.47;;
727;SDS011;347;48.780;9.158;2022-08-19T04:27:42;31.47;;;28.87;;
727;SDS011;347;48.780;9.158;2022-08-19T04:30:11;31.60;;;28.73;;
727;SDS011;347;48.780;9.158;2022-08-19T04:32:38;29.83;;;27.43;;
727;SDS011;347;48.780;9.158;2022-08-19T04:35:03;29.97;;;27.40;;
727;SDS011;347;48.780;9.158;2022-08-19T04:37:29;29.53;;;27.20;;
727;SDS011;347;48.780;9.158;2022-08-19T04:39:57;30.80;;;28.30;;
727;SDS011;347;48.780;9.158;2022-08-19T04:42:41;31.13;;;28.63;;
727;SDS011;347;48.780;9.158;2022-08-19T04:45:08;32.13;;;29.63;;
727;SDS011;347;48.780;9.158;2022-08-19T04:47:36;30.17;;;27.70;;
727;SDS011;347;48.780;9.158;2022-08-19T04:50:03;29.40;;;27.10;;
727;SDS011;347;48.780;9.158;2022-08-19T04:52:29;28.90;;;26.70;;
727;SDS011;347;48.780;9.158;2022-08-19T04:54:56;31.77;;;29.13;;
727;SDS011;347;48.780;9.158;2022-08-19T04:57:22;31.60;;;28.73;;
727;SDS011;347;48.780;9.158;2022-08-19T05:10:26;30.17;;;27.53;;
727;SDS011;347;48.780;9.158;2022-08-19T05:31:06;33.13;;;30.60;;
727;SDS011;347;48.780;9.158;2022-08-19T05:51:22;30.30;;;27.70;;
727;SDS011;347;48.780;9.158;2022-08-19T06:01:43;30.20;;;27.90;;
727;SDS011;347;48.780;9.158;2022-08-19T06:05:59;31.37;;;28.80;;
727;SDS011;347;48.780;9.158;2022-08-19T06:08:57;31.07;;;28.80;;
727;SDS011;347;48.780;9.158;2022-08-19T06:28:26;31.60;;;29.10;;
727;SDS011;347;48.780;9.158;2022-08-19T06:31:24;30.53;;;28.00;;
727;SDS011;347;48.780;9.158;2022-08-19T09:29:38;27.00;;;24.60;;
727;SDS011;347;48.780;9.158;2022-08-19T09:32:05;25.47;;;23.77;;
727;SDS011;347;48.780;9.158;2022-08-19T09:34:31;33.47;;;24.93;;
727;SDS011;347;48.780;9.158;2022-08-19T09:36:57;23.50;;;21.80;;
727;SDS011;347;48.780;9.158;2022-08-19T09:39:25;24.80;;;22.93;;
727;SDS011;347;48.780;9.158;2022-08-19T09:41:51;27.03;;;24.70;;
727;SDS011;347;48.780;9.158;2022-08-19T09:44:18;25.20;;;23.50;;
727;SDS011;347;48.780;9.158;2022-08-19T09:46:45;27.67;;;25.60;;
727;SDS011;347;48.780;9.158;2022-08-19T09:49:16;23.87;;;22.27;;
727;SDS011;347;48.780;9.158;2022-08-19T09:51:43;23.50;;;21.90;;
727;SDS011;347;48.780;9.158;2022-08-19T09:54:12;23.53;;;21.93;;
727;SDS011;347;48.780;9.158;2022-08-19T09:56:39;23.67;;;21.93;;
727;SDS011;347;48.780;9.158;2022-08-19T09:59:05;22.97;;;21.47;;
727;SDS011;347;48.780;9.158;2022-08-19T10:01:33;24.33;;;22.30;;
727;SDS011;347;48.780;9.158;2022-08-19T10:03:59;23.87;;;22.10;;
727;SDS011;347;48.780;9.158;2022-08-19T10:06:27;23.33;;;21.73;;
727;SDS011;347;48.780;9.158;2022-08-19T10:08:56;22.53;;;21.23;;
727;SDS011;347;48.780;9.158;2022-08-19T10:11:22;24.23;;;22.20;;
727;SDS011;347;48.780;9.158;2022-08-19T10:13:48;21.33;;;19.87;;
727;SDS011;347;48.780;9.158;2022-08-19T10:16:16;22.20;;;20.67;;
727;SDS011;347;48.780;9.158;2022-08-19T10:18:47;24.10;;;22.37;;
727;SDS011;347;48.780;9.158;2022-08-19T10:21:22;23.17;;;21.67;;
727;SDS011;347;48.780;9.158;2022-08-19T10:24:00;22.40;;;20.80;;
727;SDS011;347;48.780;9.158;2022-08-19T10:26:32;22.50;;;21.17;;
727;SDS011;347;48.780;9.158;2022-08-19T10:29:01;22.90;;;21.40;;
727;SDS011;347;48.780;9.158;2022-08-19T10:31:30;22.90;;;21.33;;
727;SDS011;347;48.780;9.158;2022-08-19T10:33:57;22.17;;;20.67;;
727;SDS011;347;48.780;9.158;2022-08-19T10:36:27;23.23;;;21.57;;
727;SDS011;347;48.780;9.158;2022-08-19T10:39:19;22.37;;;20.77;;
727;SDS011;347;48.780;9.158;2022-08-19T10:41:45;22.73;;;21.13;;
727;SDS011;347;48.780;9.158;2022-08-19T10:44:11;21.87;;;20.30;;
727;SDS011;347;48.780;9.158;2022-08-19T10:46:39;23.17;;;21.47;;
727;SDS011;347;48.780;9.158;2022-08-19T10:49:07;24.30;;;22.67;;
727;SDS011;347;48.780;9.158;2022-08-19T10:51:35;22.80;;;21.07;;
727;SDS011;347;48.780;9.158;2022-08-19T10:54:21;22.00;;;20.37;;
727;SDS011;347;48.780;9.158;2022-08-19T10:56:47;22.27;;;20.83;;
727;SDS011;347;48.780;9.158;2022-08-19T10:59:20;20.60;;;19.30;;
727;SDS011;347;48.780;9.158;2022-08-19T11:01:48;21.17;;;19.67;;
727;SDS011;347;48.780;9.158;2022-08-19T11:04:16;21.47;;;19.97;;
727;SDS011;347;48.780;9.158;2022-08-19T11:06:44;22.47;;;20.63;;
727;SDS011;347;48.780;9.158;2022-08-19T11:09:13;21.17;;;19.97;;
727;SDS011;347;48.780;9.158;2022-08-19T11:11:40;20.57;;;18.77;;
727;SDS011;347;48.780;9.158;2022-08-19T11:14:07;19.87;;;18.67;;
727;SDS011;347;48.780;9.158;2022-08-19T11:16:34;20.60;;;19.20;;
727;SDS011;347;48.780;9.158;2022-08-19T11:19:03;20.50;;;19.30;;
727;SDS011;347;48.780;9.158;2022-08-19T11:30:03;20.50;;;19.40;;
727;SDS011;347;48.780;9.158;2022-08-19T11:32:08;21.70;;;20.30;;
727;SDS011;347;48.780;9.158;2022-08-19T11:34:35;20.60;;;19.20;;
727;SDS011;347;48.780;9.158;2022-08-19T11:37:01;19.70;;;18.57;;
727;SDS011;347;48.780;9.158;2022-08-19T11:39:30;20.43;;;18.83;;
727;SDS011;347;48.780;9.158;2022-08-19T11:42:00;18.37;;;17.37;;
727;SDS011;347;48.780;9.158;2022-08-19T11:44:27;20.23;;;19.00;;
727;SDS011;347;48.780;9.158;2022-08-19T11:46:55;20.77;;;19.33;;
727;SDS011;347;48.780;9.158;2022-08-19T11:49:21;20.10;;;19.00;;
727;SDS011;347;48.780;9.158;2022-08-19T11:51:47;19.70;;;18.70;;
727;SDS011;347;48.780;9.158;2022-08-19T11:54:15;20.17;;;19.07;;
727;SDS011;347;48.780;9.158;2022-08-19T11:56:42;22.00;;;20.30;;
727;SDS011;347;48.780;9.158;2022-08-19T11:59:08;20.33;;;19.13;;
727;SDS011;347;48.780;9.158;2022-08-19T12:01:34;19.23;;;17.77;;
727;SDS011;347;48.780;9.158;2022-08-19T12:04:00;20.10;;;18.73;;
727;SDS011;347;48.780;9.158;2022-08-19T12:06:29;20.03;;;18.83;;
727;SDS011;347;48.780;9.158;2022-08-19T12:08:59;18.40;;;17.30;;
727;SDS011;347;48.780;9.158;2022-08-19T12:11:29;20.73;;;19.33;;
727;SDS011;347;48.780;9.158;2022-08-19T12:13:54;20.50;;;19.13;;
727;SDS011;347;48.780;9.158;2022-08-19T12:16:22;20.10;;;18.73;;
727;SDS011;347;48.780;9.158;2022-08-19T12:18:49;21.07;;;19.67;;
727;SDS011;347;48.780;9.158;2022-08-19T12:21:20;21.00;;;19.20;;
727;SDS011;347;48.780;9.158;2022-08-19T12:23:50;19.37;;;18.27;;
727;SDS011;347;48.780;9.158;2022-08-19T12:26:16;20.13;;;19.03;;
727;SDS011;347;48.780;9.158;2022-08-19T12:28:42;20.37;;;18.97;;
727;SDS011;347;48.780;9.158;2022-08-19T12:31:09;19.67;;;18.47;;
727;SDS011;347;48.780;9.158;2022-08-19T12:33:37;19.87;;;18.67;;
727;SDS011;347;48.780;9.158;2022-08-19T12:36:03;19.40;;;18.17;;
727;SDS011;347;48.780;9.158;2022-08-19T12:38:31;20.33;;;18.77;;
727;SDS011;347;48.780;9.158;2022-08-19T12:40:59;18.83;;;17.73;;
727;SDS011;347;48.780;9.158;2022-08-19T12:43:24;17.13;;;16.23;;
727;SDS011;347;48.780;9.158;2022-08-19T12:45:50;19.47;;;18.27;;
727;SDS011;347;48.780;9.158;2022-08-19T12:48:16;20.70;;;19.20;;
727;SDS011;347;48.780;9.158;2022-08-19T12:50:42;21.87;;;20.30;;
727;SDS011;347;48.780;9.158;2022-08-19T12:53:10;20.23;;;19.10;;
727;SDS011;347;48.780;9.158;2022-08-19T12:55:36;21.27;;;19.83;;
727;SDS011;347;48.780;9.158;2022-08-19T12:58:02;20.10;;;18.90;;
727;SDS011;347;48.780;9.158;2022-08-19T13:00:28;20.03;;;18.83;;
727;SDS011;347;48.780;9.158;2022-08-19T13:02:54;20.70;;;19.40;;
727;SDS011;347;48.780;9.158;2022-08-19T13:05:21;20.77;;;19.27;;
727;SDS011;347;48.780;9.158;2022-08-19T13:07:49;21.57;;;20.07;;
727;SDS011;347;48.780;9.158;2022-08-19T13:10:17;20.87;;;19.57;;
727;SDS011;347;48.780;9.158;2022-08-19T13:12:44;21.17;;;19.77;;
727;SDS011;347;48.780;9.158;2022-08-19T13:15:12;21.90;;;20.20;;
727;SDS011;347;48.780;9.158;2022-08-19T13:17:39;21.80;;;20.50;;
727;SDS011;347;48.780;9.158;2022-08-19T13:20:06;22.63;;;21.13;;
727;SDS011;347;48.780;9.158;2022-08-19T13:22:34;23.47;;;21.77;;
727;SDS011;347;48.780;9.158;2022-08-19T13:25:06;21.83;;;20.33;;
727;SDS011;347;48.780;9.158;2022-08-19T13:27:32;21.37;;;19.87;;
727;SDS011;347;48.780;9.158;2022-08-19T13:30:02;20.20;;;18.97;;
727;SDS011;347;48.780;9.158;2022-08-19T13:32:49;21.83;;;20.33;;
727;SDS011;347;48.780;9.158;2022-08-19T13:35:33;22.23;;;20.67;;
727;SDS011;347;48.780;9.158;2022-08-19T13:37:58;23.03;;;21.33;;
727;SDS011;347;48.780;9.158;2022-08-19T13:40:25;24.70;;;23.10;;
727;SDS011;347;48.780;9.158;2022-08-19T13:42:52;24.40;;;22.60;;
727;SDS011;347;48.780;9.158;2022-08-19T13:45:20;24.30;;;22.50;;
727;SDS011;347;48.780;9.158;2022-08-19T13:47:49;23.50;;;21.90;;
727;SDS011;347;48.780;9.158;2022-08-19T13:50:17;25.47;;;23.67;;
727;SDS011;347;48.780;9.158;2022-08-19T13:52:45;26.27;;;23.97;;
727;SDS011;347;48.780;9.158;2022-08-19T13:55:12;26.97;;;24.80;;
727;SDS011;347;48.780;9.158;2022-08-19T13:57:38;27.63;;;25.53;;
727;SDS011;347;48.780;9.158;2022-08-19T14:00:04;27.60;;;25.40;;
727;SDS011;347;48.780;9.158;2022-08-19T14:02:32;28.23;;;25.70;;
727;SDS011;347;48.780;9.158;2022-08-19T14:04:58;27.00;;;24.90;;
727;SDS011;347;48.780;9.158;2022-08-19T14:07:24;26.70;;;24.40;;
727;SDS011;347;48.780;9.158;2022-08-19T14:09:50;28.70;;;26.50;;
727;SDS011;347;48.780;9.158;2022-08-19T14:12:18;28.90;;;26.10;;
727;SDS011;347;48.780;9.158;2022-08-19T14:14:45;29.20;;;26.77;;
727;SDS011;347;48.780;9.158;2022-08-19T14:17:11;31.60;;;28.87;;
727;SDS011;347;48.780;9.158;2022-08-19T14:19:36;28.23;;;25.97;;
727;SDS011;347;48.780;9.158;2022-08-19T14:22:02;28.00;;;25.70;;
727;SDS011;347;48.780;9.158;2022-08-19T14:24:29;29.17;;;26.67;;
727;SDS011;347;48.780;9.158;2022-08-19T14:26:54;30.17;;;27.57;;
727;SDS011;347;48.780;9.158;2022-08-19T14:29:22;26.63;;;24.80;;
727;SDS011;347;48.780;9.158;2022-08-19T14:31:47;29.80;;;27.50;;
727;SDS011;347;48.780;9.158;2022-08-19T14:34:13;28.87;;;26.37;;
727;SDS011;347;48.780;9.158;2022-08-19T14:36:38;28.60;;;26.27;;
727;SDS011;347;48.780;9.158;2022-08-19T14:39:04;27.00;;;24.87;;
727;SDS011;347;48.780;9.158;2022-08-19T14:41:30;28.87;;;26.17;;
727;SDS011;347;48.780;9.158;2022-08-19T14:43:56;26.83;;;24.40;;
727;SDS011;347;48.780;9.158;2022-08-19T14:46:23;25.67;;;23.87;;
727;SDS011;347;48.780;9.158;2022-08-19T14:48:51;25.83;;;23.87;;
727;SDS011;347;48.780;9.158;2022-08-19T14:51:18;27.50;;;25.43;;
727;SDS011;347;48.780;9.158;2022-08-19T14:53:44;26.80;;;24.70;;
727;SDS011;347;48.780;9.158;2022-08-19T14:56:11;27.87;;;25.63;;
727;SDS011;347;48.780;9.158;2022-08-19T14:58:39;27.77;;;25.40;;
727;SDS011;347;48.780;9.158;2022-08-19T15:01:06;26.13;;;24.27;;
727;SDS011;347;48.780;9.158;2022-08-19T15:03:33;26.23;;;23.87;;
727;SDS011;347;48.780;9.158;2022-08-19T15:06:00;25.80;;;23.50;;
727;SDS011;347;48.780;9.158;2022-08-19T15:08:27;26.17;;;24.07;;
727;SDS011;347;48.780;9.158;2022-08-19T15:10:55;24.93;;;23.23;;
727;SDS011;347;48.780;9.158;2022-08-19T15:13:21;24.63;;;22.93;;
727;SDS011;347;48.780;9.158;2022-08-19T15:15:49;23.20;;;21.70;;
727;SDS011;347;48.780;9.158;2022-08-19T15:18:16;25.30;;;23.30;;
727;SDS011;347;48.780;9.158;2022-08-19T15:20:42;25.43;;;23.63;;
727;SDS011;347;48.780;9.158;2022-08-19T15:23:09;25.40;;;23.70;;
727;SDS011;347;48.780;9.158;2022-08-19T15:25:35;26.30;;;24.40;;
727;SDS011;347;48.780;9.158;2022-08-19T15:28:01;25.53;;;23.77;;
727;SDS011;347;48.780;9.158;2022-08-19T15:30:28;25.50;;;23.33;;
727;SDS011;347;48.780;9.158;2022-08-19T15:32:55;23.47;;;22.00;;
727;SDS011;347;48.780;9.158;2022-08-19T15:35:22;23.47;;;21.93;;
727;SDS011;347;48.780;9.158;2022-08-19T15:37:49;25.10;;;23.50;;
727;SDS011;347;48.780;9.158;2022-08-19T15:40:19;24.87;;;23.03;;
727;SDS011;347;48.780;9.158;2022-08-19T15:42:45;23.17;;;21.67;;
727;SDS011;347;48.780;9.158;2022-08-19T15:45:12;23.57;;;21.87;;
727;SDS011;347;48.780;9.158;2022-08-19T15:47:38;25.70;;;23.53;;
727;SDS011;347;48.780;9.158;2022-08-19T15:50:08;24.03;;;22.40;;
727;SDS011;347;48.780;9.158;2022-08-19T15:52:37;24.53;;;22.90;;
727;SDS011;347;48.780;9.158;2022-08-19T15:55:20;25.53;;;23.47;;
727;SDS011;347;48.780;9.158;2022-08-19T15:57:48;23.37;;;21.97;;
727;SDS011;347;48.780;9.158;2022-08-19T16:00:32;24.90;;;23.10;;
727;SDS011;347;48.780;9.158;2022-08-19T16:03:16;25.10;;;23.40;;
727;SDS011;347;48.780;9.158;2022-08-19T16:06:00;24.40;;;22.67;;
727;SDS011;347;48.780;9.158;2022-08-19T16:08:44;24.73;;;22.70;;
727;SDS011;347;48.780;9.158;2022-08-19T16:11:13;24.50;;;22.87;;
727;SDS011;347;48.780;9.158;2022-08-19T16:13:41;23.77;;;22.10;;
727;SDS011;347;48.780;9.158;2022-08-19T16:16:06;22.73;;;21.20;;
727;SDS011;347;48.780;9.158;2022-08-19T16:18:32;25.30;;;23.50;;
727;SDS011;347;48.780;9.158;2022-08-19T16:21:02;23.47;;;21.90;;
727;SDS011;347;48.780;9.158;2022-08-19T16:23:31;23.67;;;22.17;;
727;SDS011;347;48.780;9.158;2022-08-19T16:25:58;23.90;;;22.20;;
727;SDS011;347;48.780;9.158;2022-08-19T16:28:24;24.13;;;22.53;;
727;SDS011;347;48.780;9.158;2022-08-19T16:30:50;24.90;;;23.20;;
727;SDS011;347;48.780;9.158;2022-08-19T16:33:15;24.97;;;23.20;;
727;SDS011;347;48.780;9.158;2022-08-19T16:35:41;25.60;;;23.90;;
727;SDS011;347;48.780;9.158;2022-08-19T16:38:06;25.10;;;23.33;;
727;SDS011;347;48.780;9.158;2022-08-19T16:40:32;26.63;;;24.80;;
727;SDS011;347;48.780;9.158;2022-08-19T16:42:59;26.00;;;24.20;;
727;SDS011;347;48.780;9.158;2022-08-19T16:45:24;24.77;;;23.10;;
727;SDS011;347;48.780;9.158;2022-08-19T16:47:50;25.10;;;23.53;;
727;SDS011;347;48.780;9.158;2022-08-19T16:50:16;25.00;;;23.20;;
727;SDS011;347;48.780;9.158;2022-08-19T16:52:43;25.83;;;23.93;;
727;SDS011;347;48.780;9.158;2022-08-19T16:55:11;25.43;;;23.27;;
727;SDS011;347;48.780;9.158;2022-08-19T16:57:37;25.77;;;23.87;;
727;SDS011;347;48.780;9.158;2022-08-19T17:00:03;25.03;;;23.37;;
727;SDS011;347;48.780;9.158;2022-08-19T17:02:34;24.53;;;22.83;;
727;SDS011;347;48.780;9.158;2022-08-19T17:05:01;25.27;;;23.47;;
727;SDS011;347;48.780;9.158;2022-08-19T17:07:27;25.00;;;22.90;;
727;SDS011;347;48.780;9.158;2022-08-19T17:09:54;24.13;;;22.57;;
727;SDS011;347;48.780;9.158;2022-08-19T17:12:21;25.13;;;23.30;;
727;SDS011;347;48.780;9.158;2022-08-19T17:14:50;24.60;;;23.00;;
727;SDS011;347;48.780;9.158;2022-08-19T17:17:15;25.03;;;23.53;;
727;SDS011;347;48.780;9.158;2022-08-19T17:19:41;25.20;;;23.27;;
727;SDS011;347;48.780;9.158;2022-08-19T17:22:07;26.27;;;24.37;;
727;SDS011;347;48.780;9.158;2022-08-19T17:24:34;26.33;;;24.40;;
727;SDS011;347;48.780;9.158;2022-08-19T17:27:00;25.40;;;22.93;;
727;SDS011;347;48.780;9.158;2022-08-19T17:29:26;26.30;;;24.50;;
727;SDS011;347;48.780;9.158;2022-08-19T17:31:52;26.10;;;24.10;;
727;SDS011;347;48.780;9.158;2022-08-19T17:34:17;27.13;;;25.13;;
727;SDS011;347;48.780;9.158;2022-08-19T17:36:43;24.40;;;22.70;;
727;SDS011;347;48.780;9.158;2022-08-19T17:39:08;25.90;;;24.13;;
727;SDS011;347;48.780;9.158;2022-08-19T17:41:34;24.23;;;22.63;;
727;SDS011;347;48.780;9.158;2022-08-19T17:44:00;27.03;;;25.03;;
727;SDS011;347;48.780;9.158;2022-08-19T17:46:26;27.23;;;25.23;;
727;SDS011;347;48.780;9.158;2022-08-19T17:48:53;23.80;;;22.10;;
727;SDS011;347;48.780;9.158;2022-08-19T17:51:36;26.70;;;24.80;;
727;SDS011;347;48.780;9.158;2022-08-19T17:54:06;33.03;;;30.43;;
727;SDS011;347;48.780;9.158;2022-08-19T17:56:34;26.53;;;24.60;;
727;SDS011;347;48.780;9.158;2022-08-19T17:59:02;24.90;;;23.20;;
727;SDS011;347;48.780;9.158;2022-08-19T18:01:29;24.43;;;22.63;;
727;SDS011;347;48.780;9.158;2022-08-19T18:03:55;25.97;;;24.00;;
727;SDS011;347;48.780;9.158;2022-08-19T18:06:20;25.07;;;23.13;;
727;SDS011;347;48.780;9.158;2022-08-19T18:08:46;23.97;;;22.23;;
727;SDS011;347;48.780;9.158;2022-08-19T18:11:13;24.57;;;22.77;;
727;SDS011;347;48.780;9.158;2022-08-19T18:13:40;26.23;;;24.23;;
727;SDS011;347;48.780;9.158;2022-08-19T18:16:06;25.60;;;23.50;;
727;SDS011;347;48.780;9.158;2022-08-19T18:18:35;24.70;;;22.80;;
727;SDS011;347;48.780;9.158;2022-08-19T18:21:01;25.17;;;23.37;;
727;SDS011;347;48.780;9.158;2022-08-19T18:23:27;24.53;;;22.83;;
727;SDS011;347;48.780;9.158;2022-08-19T18:25:52;25.43;;;23.63;;
727;SDS011;347;48.780;9.158;2022-08-19T18:28:18;25.77;;;23.77;;
727;SDS011;347;48.780;9.158;2022-08-19T18:30:43;26.30;;;24.20;;
727;SDS011;347;48.780;9.158;2022-08-19T18:33:09;24.63;;;22.93;;
727;SDS011;347;48.780;9.158;2022-08-19T18:35:40;26.33;;;24.10;;
727;SDS011;347;48.780;9.158;2022-08-19T18:38:13;25.60;;;23.60;;
727;SDS011;347;48.780;9.158;2022-08-19T18:41:00;25.23;;;23.23;;
727;SDS011;347;48.780;9.158;2022-08-19T18:43:44;26.63;;;24.43;;
727;SDS011;347;48.780;9.158;2022-08-19T18:46:28;24.80;;;23.07;;
727;SDS011;347;48.780;9.158;2022-08-19T18:49:18;26.33;;;24.33;;
727;SDS011;347;48.780;9.158;2022-08-19T18:51:49;26.57;;;24.47;;
727;SDS011;347;48.780;9.158;2022-08-19T18:54:18;27.20;;;25.20;;
727;SDS011;347;48.780;9.158;2022-08-19T18:56:43;27.37;;;25.07;;
727;SDS011;347;48.780;9.158;2022-08-19T18:59:10;28.43;;;26.17;;
727;SDS011;347;48.780;9.158;2022-08-19T19:01:38;26.70;;;24.70;;
727;SDS011;347;48.780;9.158;2022-08-19T19:04:10;25.27;;;23.07;;
727;SDS011;347;48.780;9.158;2022-08-19T19:06:37;26.83;;;24.73;;
727;SDS011;347;48.780;9.158;2022-08-19T19:09:06;26.43;;;24.40;;
727;SDS011;347;48.780;9.158;2022-08-19T19:11:34;26.93;;;24.83;;
727;SDS011;347;48.780;9.158;2022-08-19T19:14:02;27.80;;;25.10;;
727;SDS011;347;48.780;9.158;2022-08-19T19:16:34;26.57;;;24.70;;
727;SDS011;347;48.780;9.158;2022-08-19T19:18:59;25.73;;;23.73;;
727;SDS011;347;48.780;9.158;2022-08-19T19:21:25;26.40;;;24.40;;
727;SDS011;347;48.780;9.158;2022-08-19T19:23:52;26.10;;;24.10;;
727;SDS011;347;48.780;9.158;2022-08-19T19:26:18;26.37;;;24.20;;
727;SDS011;347;48.780;9.158;2022-08-19T19:28:45;26.23;;;24.30;;
727;SDS011;347;48.780;9.158;2022-08-19T19:31:16;23.77;;;21.97;;
727;SDS011;347;48.780;9.158;2022-08-19T19:33:45;27.20;;;24.80;;
727;SDS011;347;48.780;9.158;2022-08-19T19:36:10;24.30;;;22.60;;
727;SDS011;347;48.780;9.158;2022-08-19T19:38:36;24.97;;;23.17;;